Time;durP1;ratioP1;P1;durP2;ratioP2;P2;SDS_P1;SDS_P2;PMS_P1;PMS_P2;Temp;Humidity;BMP_temperature;BMP_pressure;BME280_temperature;BME280_humidity;BME280_pressure;Samples;Min_cycle;Max_cycle;Signal;HPM_P1;HPM_P2
2022/06/24 00:00:10;;;;;;;;;;;;;;;;;;5093615;28;19923;-70
2022/06/24 00:02:36;;;;;;;;;;;;;;;;;;5092669;28;19928;-70
2022/06/24 00:05:02;;;;;;;;;;;;;;;;;;5093642;28;20018;-70
2022/06/24 00:07:28;;;;;;;;;;;;;;;;;;5093596;28;19920;-70
2022/06/24 00:09:54;;;;;;;;;;;;;;;;;;5092935;28;20014;-70
2022/06/24 00:12:20;;;;;;;;;;;;;;;;;;5092817;28;19995;-70
2022/06/24 00:14:46;;;;;;;;;;;;;;;;;;5093284;28;19947;-70
2022/06/24 00:17:12;;;;;;;;;;;;;;;;;;5091365;28;19920;-70
2022/06/24 00:19:39;;;;;;;;;;;;;;;;;;5093422;28;19977;-70
2022/06/24 00:22:05;;;;;;;;;;;;;;;;;;5092928;28;20010;-70
2022/06/24 00:24:31;;;;;;;;;;;;;;;;;;5092716;28;20006;-70
2022/06/24 00:26:57;;;;;;;;;;;;;;;;;;5078356;28;19977;-70
2022/06/24 00:29:23;;;;;;;;;;;;;;;;;;5071567;28;20021;-70
2022/06/24 00:31:49;;;;;;;;;;;;;;;;;;5072325;28;19964;-70
2022/06/24 00:34:15;;;;;;;;;;;;;;;;;;5072522;28;19920;-70
2022/06/24 00:36:41;;;;;;;;;;;;;;;;;;5072820;28;19920;-70
2022/06/24 00:39:06;;;;;;;;;;;;;;;;;;5072175;28;19943;-70
2022/06/24 00:41:33;;;;;;;;;;;;;;;;;;5072702;28;19924;-70
2022/06/24 00:43:59;;;;;;;;;;;;;;;;;;5072293;28;20398;-70
2022/06/24 00:46:24;;;;;;;;;;;;;;;;;;5072011;28;19925;-70
2022/06/24 00:48:50;;;;;;;;;;;;;;;;;;5071162;28;19928;-70
2022/06/24 00:51:16;;;;;;;;;;;;;;;;;;5072379;28;19958;-70
2022/06/24 00:53:42;;;;;;;;;;;;;;;;;;5071857;28;20015;-70
2022/06/24 00:56:08;;;;;;;;;;;;;;;;;;5072129;28;19927;-70
2022/06/24 00:58:34;;;;;;;;;;;;;;;;;;5072530;28;19924;-70
2022/06/24 01:01:00;;;;;;;;;;;;;;;;;;5071710;28;19966;-70
2022/06/24 01:03:26;;;;;;;;;;;;;;;;;;5070766;28;19928;-70
2022/06/24 01:05:52;;;;;;;;;;;;;;;;;;5072377;28;19974;-70
2022/06/24 01:08:18;;;;;;;;;;;;;;;;;;5071619;28;19924;-70
2022/06/24 01:10:44;;;;;;;;;;;;;;;;;;5070593;28;19999;-70
2022/06/24 01:13:10;;;;;;;;;;;;;;;;;;5070697;28;19920;-70
2022/06/24 01:15:36;;;;;;;;;;;;;;;;;;5070141;28;19924;-70
2022/06/24 01:18:02;;;;;;;;;;;;;;;;;;5070630;28;19924;-70
2022/06/24 01:20:28;;;;;;;;;;;;;;;;;;5072320;28;19920;-70
2022/06/24 01:22:54;;;;;;;;;;;;;;;;;;5072008;28;19925;-70
2022/06/24 01:25:20;;;;;;;;;;;;;;;;;;5071304;28;19920;-70
2022/06/24 01:27:46;;;;;;;;;;;;;;;;;;5092249;28;19928;-70
2022/06/24 01:30:12;;;;;;;;;;;;;;;;;;5092205;28;19947;-70
2022/06/24 01:32:38;;;;;;;;;;;;;;;;;;5090144;28;19986;-70
2022/06/24 01:35:04;;;;;;;;;;;;;;;;;;5090921;28;19967;-70
2022/06/24 01:37:29;;;;;;;;;;;;;;;;;;5090855;28;19920;-70
2022/06/24 01:39:55;;;;;;;;;;;;;;;;;;5091505;28;19924;-70
2022/06/24 01:42:21;;;;;;;;;;;;;;;;;;5091696;28;20006;-70
2022/06/24 01:44:47;;;;;;;;;;;;;;;;;;5091769;28;19931;-70
2022/06/24 01:47:13;;;;;;;;;;;;;;;;;;5091421;28;19930;-70
2022/06/24 01:49:39;;;;;;;;;;;;;;;;;;5092039;28;20286;-70
2022/06/24 01:52:05;;;;;;;;;;;;;;;;;;5091891;28;20504;-70
2022/06/24 01:54:31;;;;;;;;;;;;;;;;;;5091277;28;19920;-70
2022/06/24 01:56:57;;;;;;;;;;;;;;;;;;5090477;28;19928;-70
2022/06/24 01:59:23;;;;;;;;;;;;;;;;;;5090490;28;19931;-70
2022/06/24 02:01:49;;;;;;;;;;;;;;;;;;5089472;28;19951;-70
2022/06/24 02:04:15;;;;;;;;;;;;;;;;;;5090706;28;19924;-70
2022/06/24 02:06:41;;;;;;;;;;;;;;;;;;5090235;28;20282;-70
2022/06/24 02:09:07;;;;;;;;;;;;;;;;;;5089825;28;19920;-70
2022/06/24 02:14:18;;;;;;;;;;;;;;;;;;5091750;28;20591;-70
2022/06/24 02:16:45;;;;;;;;;;;;;;;;;;5091175;28;19920;-70
2022/06/24 02:19:11;;;;;;;;;;;;;;;;;;5091706;28;19920;-70
2022/06/24 02:21:37;;;;;;;;;;;;;;;;;;5090191;28;19985;-70
2022/06/24 02:24:03;;;;;;;;;;;;;;;;;;5090836;28;19998;-70
2022/06/24 02:26:28;;;;;;;;;;;;;;;;;;5080640;28;19943;-70
2022/06/24 02:28:54;;;;;;;;;;;;;;;;;;5071600;28;19920;-70
2022/06/24 02:31:20;;;;;;;;;;;;;;;;;;5070489;28;19981;-70
2022/06/24 02:33:46;;;;;;;;;;;;;;;;;;5069761;28;19924;-70
2022/06/24 02:36:12;;;;;;;;;;;;;;;;;;5070890;28;20290;-70
2022/06/24 02:38:38;;;;;;;;;;;;;;;;;;5074443;28;19928;-70
2022/06/24 02:41:04;;;;;;;;;;;;;;;;;;5074937;28;19944;-70
2022/06/24 02:43:30;;;;;;;;;;;;;;;;;;5074454;28;19932;-70
2022/06/24 02:45:56;;;;;;;;;;;;;;;;;;5072773;28;19999;-70
2022/06/24 02:48:22;;;;;;;;;;;;;;;;;;5074930;28;20411;-70
2022/06/24 02:50:48;;;;;;;;;;;;;;;;;;5074658;28;19924;-70
2022/06/24 02:53:17;;;;;;;;;;;;;;;;;;5074192;28;19960;-70
2022/06/24 02:55:43;;;;;;;;;;;;;;;;;;5073196;28;19924;-70
2022/06/24 02:58:09;;;;;;;;;;;;;;;;;;5074805;28;20584;-70
2022/06/24 03:00:35;;;;;;;;;;;;;;;;;;5073945;28;20011;-70
2022/06/24 03:03:01;;;;;;;;;;;;;;;;;;5074648;28;19951;-70
2022/06/24 03:05:28;;;;;;;;;;;;;;;;;;5074728;28;19952;-70
2022/06/24 03:07:54;;;;;;;;;;;;;;;;;;5073949;28;19920;-70
2022/06/24 03:10:20;;;;;;;;;;;;;;;;;;5073259;28;19925;-70
2022/06/24 03:12:46;;;;;;;;;;;;;;;;;;5073186;28;20445;-70
2022/06/24 03:15:12;;;;;;;;;;;;;;;;;;5072523;28;19976;-70
2022/06/24 03:17:38;;;;;;;;;;;;;;;;;;5073284;28;19971;-70
2022/06/24 03:20:04;;;;;;;;;;;;;;;;;;5074279;28;19920;-70
2022/06/24 03:22:30;;;;;;;;;;;;;;;;;;5073402;28;19924;-70
2022/06/24 03:24:56;;;;;;;;;;;;;;;;;;5072642;28;19924;-70
2022/06/24 03:27:22;;;;;;;;;;;;;;;;;;5090797;28;19960;-70
2022/06/24 03:29:47;;;;;;;;;;;;;;;;;;5092223;28;20297;-70
2022/06/24 03:32:13;;;;;;;;;;;;;;;;;;5093947;28;19995;-70
2022/06/24 03:34:40;;;;;;;;;;;;;;;;;;5094112;28;20028;-70
2022/06/24 03:37:06;;;;;;;;;;;;;;;;;;5092134;28;19920;-70
2022/06/24 03:39:31;;;;;;;;;;;;;;;;;;5093997;28;19924;-70
2022/06/24 03:41:57;;;;;;;;;;;;;;;;;;5093987;28;19927;-70
2022/06/24 03:44:23;;;;;;;;;;;;;;;;;;5093119;28;20307;-70
2022/06/24 03:46:49;;;;;;;;;;;;;;;;;;5092175;28;19946;-70
2022/06/24 03:49:15;;;;;;;;;;;;;;;;;;5091705;28;20030;-70
2022/06/24 03:51:41;;;;;;;;;;;;;;;;;;5091968;28;19927;-70
2022/06/24 03:54:07;;;;;;;;;;;;;;;;;;5092506;28;19951;-70
2022/06/24 03:56:33;;;;;;;;;;;;;;;;;;5093876;28;19924;-70
2022/06/24 03:58:59;;;;;;;;;;;;;;;;;;5093065;28;19924;-70
2022/06/24 04:01:25;;;;;;;;;;;;;;;;;;5092106;28;20390;-70
2022/06/24 04:03:51;;;;;;;;;;;;;;;;;;5092005;28;20010;-70
2022/06/24 04:06:17;;;;;;;;;;;;;;;;;;5074610;28;19928;-70
2022/06/24 04:08:43;;;;;;;;;;;;;;;;;;5075182;28;19920;-70
2022/06/24 04:11:10;;;;;;;;;;;;;;;;;;5093586;28;20416;-70
2022/06/24 04:13:36;;;;;;;;;;;;;;;;;;5091414;28;19920;-70
2022/06/24 04:16:01;;;;;;;;;;;;;;;;;;5091900;28;20401;-70
2022/06/24 04:18:27;;;;;;;;;;;;;;;;;;5091821;28;19967;-70
2022/06/24 04:20:53;;;;;;;;;;;;;;;;;;5092632;28;19947;-70
2022/06/24 04:23:19;;;;;;;;;;;;;;;;;;5091724;28;19924;-70
2022/06/24 04:25:45;;;;;;;;;;;;;;;;;;5088344;28;19991;-70
2022/06/24 04:28:11;;;;;;;;;;;;;;;;;;5072396;28;19927;-70
2022/06/24 04:30:37;;;;;;;;;;;;;;;;;;5072735;28;19975;-70
2022/06/24 04:33:03;;;;;;;;;;;;;;;;;;5071257;28;19921;-70
2022/06/24 04:35:29;;;;;;;;;;;;;;;;;;5070331;28;19970;-70
2022/06/24 04:37:55;;;;;;;;;;;;;;;;;;5054118;28;19924;-70
2022/06/24 04:40:21;;;;;;;;;;;;;;;;;;5073565;28;20295;-69
2022/06/24 04:42:47;;;;;;;;;;;;;;;;;;5092133;28;20069;-69
2022/06/24 04:45:13;;;;;;;;;;;;;;;;;;5091232;28;19932;-69
2022/06/24 04:47:39;;;;;;;;;;;;;;;;;;5068606;28;19943;-69
2022/06/24 04:50:05;;;;;;;;;;;;;;;;;;5079544;28;19920;-69
2022/06/24 04:52:32;;;;;;;;;;;;;;;;;;5070938;28;20317;-69
2022/06/24 04:54:58;;;;;;;;;;;;;;;;;;5078292;28;20006;-69
2022/06/24 04:57:24;;;;;;;;;;;;;;;;;;5092729;28;20615;-69
2022/06/24 04:59:50;;;;;;;;;;;;;;;;;;5091455;28;20003;-69
2022/06/24 05:02:16;;;;;;;;;;;;;;;;;;5090832;28;20522;-69
2022/06/24 05:04:42;;;;;;;;;;;;;;;;;;5092551;28;19920;-70
2022/06/24 05:07:08;;;;;;;;;;;;;;;;;;5091925;28;19924;-70
2022/06/24 05:09:33;;;;;;;;;;;;;;;;;;5092248;28;20014;-70
2022/06/24 05:11:59;;;;;;;;;;;;;;;;;;5090846;28;19920;-70
2022/06/24 05:14:25;;;;;;;;;;;;;;;;;;5090130;28;19923;-70
2022/06/24 05:16:51;;;;;;;;;;;;;;;;;;5092024;28;20006;-70
2022/06/24 05:19:17;;;;;;;;;;;;;;;;;;5090709;28;19920;-69
2022/06/24 05:21:43;;;;;;;;;;;;;;;;;;5091306;28;19927;-69
2022/06/24 05:24:09;;;;;;;;;;;;;;;;;;5090210;28;19993;-69
2022/06/24 05:26:35;;;;;;;;;;;;;;;;;;5080412;28;20340;-69
2022/06/24 05:29:01;;;;;;;;;;;;;;;;;;5071101;28;20011;-69
2022/06/24 05:31:27;;;;;;;;;;;;;;;;;;5071889;28;19925;-69
2022/06/24 05:33:53;;;;;;;;;;;;;;;;;;5069923;28;20097;-69
2022/06/24 05:36:19;;;;;;;;;;;;;;;;;;5071221;28;19932;-69
2022/06/24 05:38:46;;;;;;;;;;;;;;;;;;5070263;28;19921;-69
2022/06/24 05:41:12;;;;;;;;;;;;;;;;;;5084664;28;20418;-69
2022/06/24 05:43:38;;;;;;;;;;;;;;;;;;5091099;28;20058;-69
2022/06/24 05:46:04;;;;;;;;;;;;;;;;;;5090555;28;19920;-69
2022/06/24 05:48:30;;;;;;;;;;;;;;;;;;5090660;28;19920;-69
2022/06/24 05:50:56;;;;;;;;;;;;;;;;;;5089873;28;19920;-69
2022/06/24 05:56:06;;;;;;;;;;;;;;;;;;5090191;28;20136;-69
2022/06/24 05:58:32;;;;;;;;;;;;;;;;;;5089623;28;20007;-70
2022/06/24 06:00:58;;;;;;;;;;;;;;;;;;5090166;28;19955;-70
2022/06/24 06:03:24;;;;;;;;;;;;;;;;;;5091518;28;20022;-70
2022/06/24 06:05:50;;;;;;;;;;;;;;;;;;5090903;28;19927;-70
2022/06/24 06:08:16;;;;;;;;;;;;;;;;;;5090293;28;19924;-70
2022/06/24 06:10:43;;;;;;;;;;;;;;;;;;5092033;28;20010;-70
2022/06/24 06:13:09;;;;;;;;;;;;;;;;;;5095134;28;19971;-70
2022/06/24 06:15:35;;;;;;;;;;;;;;;;;;5095518;28;20016;-70
2022/06/24 06:18:01;;;;;;;;;;;;;;;;;;5095261;28;19921;-70
2022/06/24 06:20:27;;;;;;;;;;;;;;;;;;5093315;28;20007;-70
2022/06/24 06:22:53;;;;;;;;;;;;;;;;;;5093993;28;19927;-70
2022/06/24 06:25:19;;;;;;;;;;;;;;;;;;5092902;28;19942;-70
2022/06/24 06:27:45;;;;;;;;;;;;;;;;;;5074232;28;19931;-70
2022/06/24 06:30:11;;;;;;;;;;;;;;;;;;5081853;28;19924;-70
2022/06/24 06:32:37;;;;;;;;;;;;;;;;;;5091329;28;19950;-69
2022/06/24 06:35:03;;;;;;;;;;;;;;;;;;5107349;28;19920;-69
2022/06/24 06:37:29;;;;;;;;;;;;;;;;;;5101624;28;19966;-68
2022/06/24 06:39:54;;;;;;;;;;;;;;;;;;5101879;28;19927;-71
2022/06/24 06:42:20;;;;;;;;;;;;;;;;;;5108067;28;19923;-70
2022/06/24 06:44:46;;;;;;;;;;;;;;;;;;5099508;28;19928;-70
2022/06/24 06:47:12;;;;;;;;;;;;;;;;;;5093762;28;19924;-70
2022/06/24 06:49:38;;;;;;;;;;;;;;;;;;5083036;28;19962;-71
2022/06/24 06:52:04;;;;;;;;;;;;;;;;;;5100840;28;19946;-70
2022/06/24 06:54:30;;;;;;;;;;;;;;;;;;5086323;28;20791;-69
2022/06/24 06:56:56;;;;;;;;;;;;;;;;;;5088239;28;20374;-70
2022/06/24 06:59:22;;;;;;;;;;;;;;;;;;5094159;28;19924;-69
2022/06/24 07:01:48;;;;;;;;;;;;;;;;;;5102942;28;20289;-70
2022/06/24 07:04:15;;;;;;;;;;;;;;;;;;5100793;28;20006;-70
2022/06/24 07:06:41;;;;;;;;;;;;;;;;;;5108017;28;19976;-67
2022/06/24 07:09:07;;;;;;;;;;;;;;;;;;5094991;28;20030;-68
2022/06/24 07:11:33;;;;;;;;;;;;;;;;;;5105553;28;19920;-69
2022/06/24 07:13:59;;;;;;;;;;;;;;;;;;5104103;28;19920;-70
2022/06/24 07:16:26;;;;;;;;;;;;;;;;;;5099560;28;19924;-69
2022/06/24 07:18:52;;;;;;;;;;;;;;;;;;5090356;28;19923;-70
2022/06/24 07:21:18;;;;;;;;;;;;;;;;;;5093814;28;19928;-68
2022/06/24 07:23:43;;;;;;;;;;;;;;;;;;5105583;28;19920;-70
2022/06/24 07:26:11;;;;;;;;;;;;;;;;;;5094901;28;19979;-69
2022/06/24 07:28:37;;;;;;;;;;;;;;;;;;5093558;28;19973;-69
2022/06/24 07:31:03;;;;;;;;;;;;;;;;;;5092997;28;19920;-70
2022/06/24 07:33:29;;;;;;;;;;;;;;;;;;5099241;28;19924;-69
2022/06/24 07:35:55;;;;;;;;;;;;;;;;;;5115646;28;19987;-71
2022/06/24 07:38:21;;;;;;;;;;;;;;;;;;5112298;28;19924;-72
2022/06/24 07:40:47;;;;;;;;;;;;;;;;;;5079478;28;19931;-72
2022/06/24 07:43:13;;;;;;;;;;;;;;;;;;5088437;28;19928;-70
2022/06/24 07:45:39;;;;;;;;;;;;;;;;;;5094229;28;19930;-71
2022/06/24 07:48:05;;;;;;;;;;;;;;;;;;5082810;28;19970;-72
2022/06/24 07:50:31;;;;;;;;;;;;;;;;;;5075189;28;19920;-68
2022/06/24 07:52:57;;;;;;;;;;;;;;;;;;5086725;28;19951;-67
2022/06/24 07:58:24;;;;;;;;;;;;;;;;;;5058725;28;19920;-69
2022/06/24 08:00:51;;;;;;;;;;;;;;;;;;5079057;28;19946;-66
2022/06/24 08:03:17;;;;;;;;;;;;;;;;;;5085037;28;19954;-70
2022/06/24 08:05:43;;;;;;;;;;;;;;;;;;5084175;28;20059;-66
2022/06/24 08:08:09;;;;;;;;;;;;;;;;;;5093647;28;20359;-67
2022/06/24 08:10:34;;;;;;;;;;;;;;;;;;5090438;28;19920;-67
2022/06/24 08:13:00;;;;;;;;;;;;;;;;;;5088842;28;19943;-66
2022/06/24 08:15:26;;;;;;;;;;;;;;;;;;5092140;28;19932;-67
2022/06/24 08:17:52;;;;;;;;;;;;;;;;;;5078547;28;19924;-67
2022/06/24 08:20:18;;;;;;;;;;;;;;;;;;5089386;28;19924;-65
2022/06/24 08:22:44;;;;;;;;;;;;;;;;;;5088812;28;20011;-66
2022/06/24 08:25:10;;;;;;;;;;;;;;;;;;5097482;28;20027;-65
2022/06/24 08:27:36;;;;;;;;;;;;;;;;;;5108019;28;19923;-66
2022/06/24 08:30:03;;;;;;;;;;;;;;;;;;5090684;28;20014;-66
2022/06/24 08:32:29;;;;;;;;;;;;;;;;;;5087663;28;20332;-67
2022/06/24 08:34:55;;;;;;;;;;;;;;;;;;5098351;28;20432;-66
2022/06/24 08:37:21;;;;;;;;;;;;;;;;;;5098185;28;20408;-67
2022/06/24 08:39:47;;;;;;;;;;;;;;;;;;5101825;28;19931;-68
2022/06/24 08:42:13;;;;;;;;;;;;;;;;;;5096318;28;19924;-67
2022/06/24 08:44:39;;;;;;;;;;;;;;;;;;5082972;28;19979;-67
2022/06/24 08:47:05;;;;;;;;;;;;;;;;;;5091382;28;19924;-67
2022/06/24 08:49:31;;;;;;;;;;;;;;;;;;5097294;28;19924;-67
2022/06/24 08:51:57;;;;;;;;;;;;;;;;;;5097969;28;19923;-67
2022/06/24 08:54:23;;;;;;;;;;;;;;;;;;5076875;28;20263;-67
2022/06/24 08:56:50;;;;;;;;;;;;;;;;;;5088172;28;19932;-65
2022/06/24 08:59:15;;;;;;;;;;;;;;;;;;5100205;28;19926;-67
2022/06/24 09:01:41;;;;;;;;;;;;;;;;;;5083319;28;19920;-67
2022/06/24 09:04:07;;;;;;;;;;;;;;;;;;5084543;28;19928;-65
2022/06/24 09:06:33;;;;;;;;;;;;;;;;;;5089276;28;20011;-65
2022/06/24 09:08:59;;;;;;;;;;;;;;;;;;5099778;28;19920;-66
2022/06/24 09:11:25;;;;;;;;;;;;;;;;;;5086632;28;20016;-66
2022/06/24 09:13:55;;;;;;;;;;;;;;;;;;5093466;28;19920;-67
2022/06/24 09:16:21;;;;;;;;;;;;;;;;;;5088844;28;19928;-65
2022/06/24 09:18:47;;;;;;;;;;;;;;;;;;5077408;28;20367;-66
2022/06/24 09:21:13;;;;;;;;;;;;;;;;;;5090022;28;19920;-67
2022/06/24 09:23:39;;;;;;;;;;;;;;;;;;5082783;28;19954;-67
2022/06/24 09:26:05;;;;;;;;;;;;;;;;;;5067626;28;19975;-67
2022/06/24 09:28:31;;;;;;;;;;;;;;;;;;5080245;28;19929;-67
2022/06/24 09:30:57;;;;;;;;;;;;;;;;;;5075713;28;19920;-67
2022/06/24 09:33:23;;;;;;;;;;;;;;;;;;5083860;28;19928;-66
2022/06/24 09:35:49;;;;;;;;;;;;;;;;;;5077073;28;19928;-65
2022/06/24 09:38:15;;;;;;;;;;;;;;;;;;5088249;28;19950;-67
2022/06/24 09:40:41;;;;;;;;;;;;;;;;;;5105736;28;19961;-68
2022/06/24 09:43:09;;;;;;;;;;;;;;;;;;5095091;28;19970;-67
2022/06/24 09:45:35;;;;;;;;;;;;;;;;;;5077824;28;20305;-68
2022/06/24 09:48:01;;;;;;;;;;;;;;;;;;5102894;28;19919;-68
2022/06/24 09:50:26;;;;;;;;;;;;;;;;;;5096479;28;20026;-68
2022/06/24 09:52:52;;;;;;;;;;;;;;;;;;5107180;28;20003;-68
2022/06/24 09:55:18;;;;;;;;;;;;;;;;;;5093526;28;20482;-66
2022/06/24 09:57:44;;;;;;;;;;;;;;;;;;5089332;28;19927;-64
2022/06/24 10:03:06;;;;;;;;;;;;;;;;;;5077749;28;19928;-68
2022/06/24 10:05:32;;;;;;;;;;;;;;;;;;5092281;28;19982;-67
2022/06/24 10:07:58;;;;;;;;;;;;;;;;;;5087498;28;19927;-66
2022/06/24 10:10:24;;;;;;;;;;;;;;;;;;5092473;28;19924;-68
2022/06/24 10:12:50;;;;;;;;;;;;;;;;;;5094395;28;19920;-69
2022/06/24 10:15:16;;;;;;;;;;;;;;;;;;5084217;28;19928;-67
2022/06/24 10:17:42;;;;;;;;;;;;;;;;;;5086215;28;20726;-67
2022/06/24 10:20:08;;;;;;;;;;;;;;;;;;5088183;28;20367;-67
2022/06/24 10:22:34;;;;;;;;;;;;;;;;;;5083831;28;19998;-65
2022/06/24 10:25:00;;;;;;;;;;;;;;;;;;5097986;28;20466;-65
2022/06/24 10:27:26;;;;;;;;;;;;;;;;;;5087606;28;19920;-65
2022/06/24 10:29:52;;;;;;;;;;;;;;;;;;5084444;28;19920;-65
2022/06/24 10:32:17;;;;;;;;;;;;;;;;;;5079908;28;19940;-65
2022/06/24 10:34:44;;;;;;;;;;;;;;;;;;5089193;28;19950;-66
2022/06/24 10:37:09;;;;;;;;;;;;;;;;;;5103677;28;19919;-67
2022/06/24 10:39:36;;;;;;;;;;;;;;;;;;5092697;28;19920;-66
2022/06/24 10:42:02;;;;;;;;;;;;;;;;;;5093489;28;20030;-67
2022/06/24 10:44:28;;;;;;;;;;;;;;;;;;5100941;28;19945;-67
2022/06/24 10:46:54;;;;;;;;;;;;;;;;;;5098196;28;19963;-67
2022/06/24 10:49:20;;;;;;;;;;;;;;;;;;5090800;28;19941;-67
2022/06/24 10:51:46;;;;;;;;;;;;;;;;;;5088953;28;19920;-67
2022/06/24 10:54:12;;;;;;;;;;;;;;;;;;5091355;28;19942;-68
2022/06/24 10:56:38;;;;;;;;;;;;;;;;;;5089590;28;19994;-68
2022/06/24 10:59:04;;;;;;;;;;;;;;;;;;5089666;28;19921;-67
2022/06/24 11:01:30;;;;;;;;;;;;;;;;;;5092432;28;19920;-67
2022/06/24 11:03:56;;;;;;;;;;;;;;;;;;5080873;28;19920;-68
2022/06/24 11:06:22;;;;;;;;;;;;;;;;;;5087705;28;19924;-68
2022/06/24 11:08:48;;;;;;;;;;;;;;;;;;5095005;28;19943;-69
2022/06/24 11:11:25;;;;;;;;;;;;;;;;;;5091713;28;19920;-68
2022/06/24 11:13:51;;;;;;;;;;;;;;;;;;5102867;28;20271;-68
2022/06/24 11:16:17;;;;;;;;;;;;;;;;;;5090827;28;19935;-69
2022/06/24 11:18:43;;;;;;;;;;;;;;;;;;5093039;28;19963;-69
2022/06/24 11:21:09;;;;;;;;;;;;;;;;;;5101534;28;20005;-69
2022/06/24 11:23:35;;;;;;;;;;;;;;;;;;5074092;28;19924;-69
2022/06/24 11:26:01;;;;;;;;;;;;;;;;;;5085689;28;19923;-69
2022/06/24 11:28:27;;;;;;;;;;;;;;;;;;5096545;28;20578;-68
2022/06/24 11:30:53;;;;;;;;;;;;;;;;;;5100665;28;19924;-68
2022/06/24 11:33:19;;;;;;;;;;;;;;;;;;5085618;28;19966;-70
2022/06/24 11:35:45;;;;;;;;;;;;;;;;;;5075044;28;19932;-69
2022/06/24 11:38:11;;;;;;;;;;;;;;;;;;5089628;28;19967;-69
2022/06/24 11:40:37;;;;;;;;;;;;;;;;;;5085904;28;19955;-69
2022/06/24 11:43:03;;;;;;;;;;;;;;;;;;5087759;28;19973;-69
2022/06/24 11:45:29;;;;;;;;;;;;;;;;;;5092748;28;19924;-68
2022/06/24 11:47:55;;;;;;;;;;;;;;;;;;5091822;28;19920;-68
2022/06/24 11:50:20;;;;;;;;;;;;;;;;;;5092944;28;19943;-68
2022/06/24 11:52:46;;;;;;;;;;;;;;;;;;5090906;28;19924;-69
2022/06/24 11:55:12;;;;;;;;;;;;;;;;;;5079750;28;19996;-68
2022/06/24 11:57:38;;;;;;;;;;;;;;;;;;5084451;28;19924;-70
2022/06/24 12:00:04;;;;;;;;;;;;;;;;;;5090198;28;19947;-70
2022/06/24 12:02:30;;;;;;;;;;;;;;;;;;5089431;28;20067;-69
2022/06/24 12:04:56;;;;;;;;;;;;;;;;;;5091979;28;19927;-68
2022/06/24 12:07:22;;;;;;;;;;;;;;;;;;5091562;28;19923;-68
2022/06/24 12:09:48;;;;;;;;;;;;;;;;;;5078969;28;19932;-69
2022/06/24 12:12:14;;;;;;;;;;;;;;;;;;5089728;28;20072;-68
2022/06/24 12:14:40;;;;;;;;;;;;;;;;;;5080440;28;19943;-69
2022/06/24 12:17:06;;;;;;;;;;;;;;;;;;5097764;28;20370;-69
2022/06/24 12:19:32;;;;;;;;;;;;;;;;;;5094109;28;20053;-69
2022/06/24 12:21:58;;;;;;;;;;;;;;;;;;5087533;28;20148;-69
2022/06/24 12:24:24;;;;;;;;;;;;;;;;;;5089042;28;19967;-69
2022/06/24 12:26:50;;;;;;;;;;;;;;;;;;5085149;28;19920;-69
2022/06/24 12:29:16;;;;;;;;;;;;;;;;;;5090336;28;19930;-68
2022/06/24 12:31:42;;;;;;;;;;;;;;;;;;5086013;28;20424;-69
2022/06/24 12:34:08;;;;;;;;;;;;;;;;;;5092013;28;19920;-69
2022/06/24 12:36:34;;;;;;;;;;;;;;;;;;5090305;28;20006;-68
2022/06/24 12:39:00;;;;;;;;;;;;;;;;;;5090206;28;19920;-68
2022/06/24 12:41:26;;;;;;;;;;;;;;;;;;5080228;28;19955;-68
2022/06/24 12:43:52;;;;;;;;;;;;;;;;;;5083212;28;20373;-68
2022/06/24 12:46:18;;;;;;;;;;;;;;;;;;5104826;28;19924;-69
2022/06/24 12:51:29;;;;;;;;;;;;;;;;;;5088088;28;20358;-68
2022/06/24 12:53:55;;;;;;;;;;;;;;;;;;5091155;28;20018;-68
2022/06/24 12:56:21;;;;;;;;;;;;;;;;;;5082556;28;19932;-70
2022/06/24 12:58:47;;;;;;;;;;;;;;;;;;5081847;28;20028;-66
2022/06/24 13:01:13;;;;;;;;;;;;;;;;;;5096723;28;20517;-67
2022/06/24 13:03:39;;;;;;;;;;;;;;;;;;5088580;28;19926;-67
2022/06/24 13:06:05;;;;;;;;;;;;;;;;;;5084226;28;19928;-67
2022/06/24 13:08:31;;;;;;;;;;;;;;;;;;5085386;28;19920;-67
2022/06/24 13:10:57;;;;;;;;;;;;;;;;;;5104052;28;19928;-66
2022/06/24 13:13:23;;;;;;;;;;;;;;;;;;5090437;28;19924;-66
2022/06/24 13:15:49;;;;;;;;;;;;;;;;;;5091243;28;19924;-68
2022/06/24 13:18:15;;;;;;;;;;;;;;;;;;5087352;28;20538;-69
2022/06/24 13:20:41;;;;;;;;;;;;;;;;;;5090090;28;19924;-70
2022/06/24 13:23:07;;;;;;;;;;;;;;;;;;5095863;28;20014;-67
2022/06/24 13:25:33;;;;;;;;;;;;;;;;;;5087797;28;20003;-66
2022/06/24 13:28:02;;;;;;;;;;;;;;;;;;5086430;28;20027;-67
2022/06/24 13:30:28;;;;;;;;;;;;;;;;;;5088276;28;19931;-65
2022/06/24 13:32:54;;;;;;;;;;;;;;;;;;5091608;28;19920;-66
2022/06/24 13:35:20;;;;;;;;;;;;;;;;;;5107117;28;19946;-68
2022/06/24 13:37:46;;;;;;;;;;;;;;;;;;5081429;28;19920;-67
2022/06/24 13:40:12;;;;;;;;;;;;;;;;;;5089525;28;19978;-69
2022/06/24 13:42:38;;;;;;;;;;;;;;;;;;5091617;28;21819;-69
2022/06/24 13:45:04;;;;;;;;;;;;;;;;;;5090622;28;19959;-71
2022/06/24 13:47:30;;;;;;;;;;;;;;;;;;5091703;28;19924;-72
2022/06/24 13:49:58;;;;;;;;;;;;;;;;;;5090237;28;19920;-72
2022/06/24 13:52:24;;;;;;;;;;;;;;;;;;5089452;28;20375;-72
2022/06/24 13:54:51;;;;;;;;;;;;;;;;;;5090211;28;19985;-67
2022/06/24 13:57:17;;;;;;;;;;;;;;;;;;5072676;28;19924;-70
2022/06/24 13:59:43;;;;;;;;;;;;;;;;;;5082352;28;19920;-67
2022/06/24 14:02:09;;;;;;;;;;;;;;;;;;5091777;28;19939;-68
2022/06/24 14:04:35;;;;;;;;;;;;;;;;;;5103962;28;20290;-69
2022/06/24 14:07:01;;;;;;;;;;;;;;;;;;5111012;28;19924;-69
2022/06/24 14:09:27;;;;;;;;;;;;;;;;;;5105701;28;19946;-69
2022/06/24 14:11:53;;;;;;;;;;;;;;;;;;5107130;28;20014;-69
2022/06/24 14:14:19;;;;;;;;;;;;;;;;;;5095815;28;20017;-69
2022/06/24 14:16:45;;;;;;;;;;;;;;;;;;5107321;28;19965;-69
2022/06/24 14:19:11;;;;;;;;;;;;;;;;;;5096175;28;19970;-68
2022/06/24 14:21:37;;;;;;;;;;;;;;;;;;5101953;28;19956;-68
2022/06/24 14:26:48;;;;;;;;;;;;;;;;;;5094781;28;20275;-68
2022/06/24 14:29:13;;;;;;;;;;;;;;;;;;5104665;28;19920;-69
2022/06/24 14:31:39;;;;;;;;;;;;;;;;;;5100465;28;19987;-69
2022/06/24 14:34:06;;;;;;;;;;;;;;;;;;5102030;28;19924;-68
2022/06/24 14:36:32;;;;;;;;;;;;;;;;;;5110397;28;19931;-68
2022/06/24 14:41:42;;;;;;;;;;;;;;;;;;5100028;28;20294;-68
2022/06/24 14:44:08;;;;;;;;;;;;;;;;;;5097983;28;19927;-68
2022/06/24 14:46:34;;;;;;;;;;;;;;;;;;5111209;28;19935;-68
2022/06/24 14:49:01;;;;;;;;;;;;;;;;;;5101105;28;20013;-68
2022/06/24 14:51:27;;;;;;;;;;;;;;;;;;5102379;28;20430;-68
2022/06/24 14:53:53;;;;;;;;;;;;;;;;;;5107930;28;19920;-69
2022/06/24 14:56:19;;;;;;;;;;;;;;;;;;5096813;28;19925;-69
2022/06/24 14:58:45;;;;;;;;;;;;;;;;;;5103292;28;19969;-70
2022/06/24 15:01:11;;;;;;;;;;;;;;;;;;5102129;28;20352;-69
2022/06/24 15:03:37;;;;;;;;;;;;;;;;;;5103169;28;19951;-69
2022/06/24 15:06:03;;;;;;;;;;;;;;;;;;5108624;28;19955;-69
2022/06/24 15:08:30;;;;;;;;;;;;;;;;;;5097385;28;19924;-69
2022/06/24 15:10:56;;;;;;;;;;;;;;;;;;5107944;28;19923;-69
2022/06/24 15:13:22;;;;;;;;;;;;;;;;;;5102706;28;19930;-69
2022/06/24 15:15:48;;;;;;;;;;;;;;;;;;5101469;28;19938;-69
2022/06/24 15:18:14;;;;;;;;;;;;;;;;;;5110082;28;19941;-69
2022/06/24 15:20:41;;;;;;;;;;;;;;;;;;5096952;28;19933;-69
2022/06/24 15:23:07;;;;;;;;;;;;;;;;;;5106733;28;19930;-69
2022/06/24 15:25:33;;;;;;;;;;;;;;;;;;5103802;28;20430;-69
2022/06/24 15:27:59;;;;;;;;;;;;;;;;;;5098706;27;19924;-69
2022/06/24 15:30:25;;;;;;;;;;;;;;;;;;5110241;28;20002;-69
2022/06/24 15:32:51;;;;;;;;;;;;;;;;;;5098893;28;20111;-69
2022/06/24 15:35:17;;;;;;;;;;;;;;;;;;5104229;28;19928;-69
2022/06/24 15:37:43;;;;;;;;;;;;;;;;;;5105244;28;19932;-69
2022/06/24 15:40:09;;;;;;;;;;;;;;;;;;5098019;28;19927;-69
2022/06/24 15:42:35;;;;;;;;;;;;;;;;;;5105118;28;20037;-69
2022/06/24 15:45:01;;;;;;;;;;;;;;;;;;5107473;28;19947;-69
2022/06/24 15:47:27;;;;;;;;;;;;;;;;;;5099824;28;20009;-69
2022/06/24 15:49:53;;;;;;;;;;;;;;;;;;5105925;28;19920;-69
2022/06/24 15:52:19;;;;;;;;;;;;;;;;;;5096544;28;19920;-69
2022/06/24 15:54:45;;;;;;;;;;;;;;;;;;5109120;28;20271;-69
2022/06/24 15:57:11;;;;;;;;;;;;;;;;;;5100611;28;19927;-69
2022/06/24 15:59:37;;;;;;;;;;;;;;;;;;5101420;28;20291;-69
2022/06/24 16:02:03;;;;;;;;;;;;;;;;;;5106409;28;19930;-69
2022/06/24 16:04:29;;;;;;;;;;;;;;;;;;5095836;28;20540;-69
2022/06/24 16:06:55;;;;;;;;;;;;;;;;;;5107406;28;20030;-69
2022/06/24 16:09:21;;;;;;;;;;;;;;;;;;5102045;28;20382;-69
2022/06/24 16:14:32;;;;;;;;;;;;;;;;;;5109529;28;20282;-69
2022/06/24 16:16:58;;;;;;;;;;;;;;;;;;5098158;28;19927;-69
2022/06/24 16:19:24;;;;;;;;;;;;;;;;;;5092530;28;19955;-69
2022/06/24 16:21:49;;;;;;;;;;;;;;;;;;5093342;28;19927;-69
2022/06/24 16:24:15;;;;;;;;;;;;;;;;;;5093296;28;20014;-69
2022/06/24 16:29:26;;;;;;;;;;;;;;;;;;5093159;28;20351;-69
2022/06/24 16:31:53;;;;;;;;;;;;;;;;;;5093044;28;19924;-69
2022/06/24 16:34:19;;;;;;;;;;;;;;;;;;5092498;28;20028;-69
2022/06/24 16:36:45;;;;;;;;;;;;;;;;;;5093133;28;19967;-69
2022/06/24 16:39:10;;;;;;;;;;;;;;;;;;5093140;28;19919;-69
2022/06/24 16:41:36;;;;;;;;;;;;;;;;;;5092385;28;20015;-69
2022/06/24 16:44:02;;;;;;;;;;;;;;;;;;5092586;28;20006;-69
2022/06/24 16:46:28;;;;;;;;;;;;;;;;;;5092949;28;19924;-69
2022/06/24 16:48:54;;;;;;;;;;;;;;;;;;5092300;28;19924;-69
2022/06/24 16:51:20;;;;;;;;;;;;;;;;;;5092718;28;19919;-69
2022/06/24 16:53:46;;;;;;;;;;;;;;;;;;5092689;28;19920;-69
2022/06/24 16:56:12;;;;;;;;;;;;;;;;;;5091562;28;19928;-69
2022/06/24 16:58:38;;;;;;;;;;;;;;;;;;5092761;28;19920;-69
2022/06/24 17:01:04;;;;;;;;;;;;;;;;;;5092628;28;20013;-69